sensor_id;sensor_type;location;lat;lon;timestamp;P1;durP1;ratioP1;P2;durP2;ratioP2
73487;SDS011;61721;42.206;25.320;2024-02-28T00:00:04;9.18;;;3.13;;
73487;SDS011;61721;42.206;25.320;2024-02-28T00:02:33;7.72;;;2.97;;
73487;SDS011;61721;42.206;25.320;2024-02-28T00:05:00;13.68;;;3.15;;
73487;SDS011;61721;42.206;25.320;2024-02-28T00:07:29;12.20;;;3.05;;
73487;SDS011;61721;42.206;25.320;2024-02-28T00:09:57;14.82;;;3.28;;
73487;SDS011;61721;42.206;25.320;2024-02-28T00:12:24;11.55;;;3.10;;
73487;SDS011;61721;42.206;25.320;2024-02-28T00:14:52;7.13;;;2.90;;
73487;SDS011;61721;42.206;25.320;2024-02-28T00:17:19;8.93;;;2.80;;
73487;SDS011;61721;42.206;25.320;2024-02-28T00:19:46;9.15;;;3.00;;
73487;SDS011;61721;42.206;25.320;2024-02-28T00:22:14;12.52;;;3.65;;
73487;SDS011;61721;42.206;25.320;2024-02-28T00:24:43;9.55;;;2.88;;
73487;SDS011;61721;42.206;25.320;2024-02-28T00:27:10;9.77;;;2.92;;
73487;SDS011;61721;42.206;25.320;2024-02-28T00:29:37;9.02;;;2.85;;
73487;SDS011;61721;42.206;25.320;2024-02-28T00:32:05;7.80;;;2.58;;
73487;SDS011;61721;42.206;25.320;2024-02-28T00:34:33;9.63;;;2.95;;
73487;SDS011;61721;42.206;25.320;2024-02-28T00:37:00;8.23;;;2.80;;
73487;SDS011;61721;42.206;25.320;2024-02-28T00:39:27;12.05;;;3.03;;
73487;SDS011;61721;42.206;25.320;2024-02-28T00:41:56;9.13;;;3.50;;
73487;SDS011;61721;42.206;25.320;2024-02-28T00:44:25;11.70;;;3.35;;
73487;SDS011;61721;42.206;25.320;2024-02-28T00:46:52;8.50;;;2.60;;
73487;SDS011;61721;42.206;25.320;2024-02-28T00:49:20;12.23;;;3.30;;
73487;SDS011;61721;42.206;25.320;2024-02-28T00:51:47;9.75;;;3.25;;
73487;SDS011;61721;42.206;25.320;2024-02-28T00:54:15;7.43;;;2.85;;
73487;SDS011;61721;42.206;25.320;2024-02-28T00:56:43;11.90;;;3.00;;
73487;SDS011;61721;42.206;25.320;2024-02-28T00:59:12;10.63;;;3.17;;
73487;SDS011;61721;42.206;25.320;2024-02-28T01:01:40;11.77;;;3.78;;
73487;SDS011;61721;42.206;25.320;2024-02-28T01:04:07;12.82;;;3.55;;
73487;SDS011;61721;42.206;25.320;2024-02-28T01:06:35;9.80;;;3.38;;
73487;SDS011;61721;42.206;25.320;2024-02-28T01:09:02;12.70;;;3.55;;
73487;SDS011;61721;42.206;25.320;2024-02-28T01:11:30;11.85;;;3.70;;
73487;SDS011;61721;42.206;25.320;2024-02-28T01:13:57;11.73;;;3.60;;
73487;SDS011;61721;42.206;25.320;2024-02-28T01:16:26;7.95;;;3.63;;
73487;SDS011;61721;42.206;25.320;2024-02-28T01:18:54;12.25;;;3.78;;
73487;SDS011;61721;42.206;25.320;2024-02-28T01:21:22;10.15;;;3.38;;
73487;SDS011;61721;42.206;25.320;2024-02-28T01:23:49;10.48;;;3.42;;
73487;SDS011;61721;42.206;25.320;2024-02-28T01:26:16;11.35;;;3.80;;
73487;SDS011;61721;42.206;25.320;2024-02-28T01:28:45;10.60;;;3.58;;
73487;SDS011;61721;42.206;25.320;2024-02-28T01:31:12;6.43;;;2.88;;
73487;SDS011;61721;42.206;25.320;2024-02-28T01:33:41;10.25;;;2.88;;
73487;SDS011;61721;42.206;25.320;2024-02-28T01:36:09;11.88;;;3.63;;
73487;SDS011;61721;42.206;25.320;2024-02-28T01:38:38;10.18;;;3.35;;
73487;SDS011;61721;42.206;25.320;2024-02-28T01:41:06;11.60;;;3.63;;
73487;SDS011;61721;42.206;25.320;2024-02-28T01:43:33;12.57;;;3.05;;
73487;SDS011;61721;42.206;25.320;2024-02-28T01:46:01;12.90;;;3.38;;
73487;SDS011;61721;42.206;25.320;2024-02-28T01:48:31;11.40;;;3.88;;
73487;SDS011;61721;42.206;25.320;2024-02-28T01:51:00;9.85;;;2.95;;
73487;SDS011;61721;42.206;25.320;2024-02-28T01:53:29;14.32;;;3.65;;
73487;SDS011;61721;42.206;25.320;2024-02-28T01:55:56;13.02;;;3.47;;
73487;SDS011;61721;42.206;25.320;2024-02-28T01:58:24;11.52;;;3.20;;
73487;SDS011;61721;42.206;25.320;2024-02-28T02:00:51;8.13;;;3.50;;
73487;SDS011;61721;42.206;25.320;2024-02-28T02:03:20;8.93;;;3.92;;
73487;SDS011;61721;42.206;25.320;2024-02-28T02:05:47;11.73;;;3.67;;
73487;SDS011;61721;42.206;25.320;2024-02-28T02:08:16;11.02;;;3.38;;
73487;SDS011;61721;42.206;25.320;2024-02-28T02:10:43;11.75;;;3.30;;
73487;SDS011;61721;42.206;25.320;2024-02-28T02:13:11;7.93;;;3.40;;
73487;SDS011;61721;42.206;25.320;2024-02-28T02:15:38;9.20;;;3.33;;
73487;SDS011;61721;42.206;25.320;2024-02-28T02:18:06;9.43;;;3.92;;
73487;SDS011;61721;42.206;25.320;2024-02-28T02:20:34;11.68;;;4.50;;
73487;SDS011;61721;42.206;25.320;2024-02-28T02:23:10;10.93;;;3.90;;
73487;SDS011;61721;42.206;25.320;2024-02-28T02:25:43;18.48;;;4.13;;
73487;SDS011;61721;42.206;25.320;2024-02-28T02:28:11;12.35;;;3.80;;
73487;SDS011;61721;42.206;25.320;2024-02-28T02:30:38;11.98;;;3.42;;
73487;SDS011;61721;42.206;25.320;2024-02-28T02:33:07;10.23;;;3.72;;
73487;SDS011;61721;42.206;25.320;2024-02-28T02:35:34;14.68;;;4.20;;
73487;SDS011;61721;42.206;25.320;2024-02-28T02:38:02;13.13;;;4.00;;
73487;SDS011;61721;42.206;25.320;2024-02-28T02:40:31;11.88;;;3.42;;
73487;SDS011;61721;42.206;25.320;2024-02-28T02:42:58;11.95;;;3.67;;
73487;SDS011;61721;42.206;25.320;2024-02-28T02:45:26;11.82;;;3.88;;
73487;SDS011;61721;42.206;25.320;2024-02-28T02:47:53;12.60;;;3.92;;
73487;SDS011;61721;42.206;25.320;2024-02-28T02:50:20;11.90;;;3.60;;
73487;SDS011;61721;42.206;25.320;2024-02-28T02:52:48;10.35;;;3.70;;
73487;SDS011;61721;42.206;25.320;2024-02-28T02:55:15;7.50;;;3.63;;
73487;SDS011;61721;42.206;25.320;2024-02-28T02:57:44;12.10;;;3.75;;
73487;SDS011;61721;42.206;25.320;2024-02-28T03:00:12;9.60;;;3.63;;
73487;SDS011;61721;42.206;25.320;2024-02-28T03:02:40;8.70;;;3.03;;
73487;SDS011;61721;42.206;25.320;2024-02-28T03:05:08;10.82;;;3.00;;
73487;SDS011;61721;42.206;25.320;2024-02-28T03:07:35;12.85;;;3.55;;
73487;SDS011;61721;42.206;25.320;2024-02-28T03:10:03;11.60;;;3.35;;
73487;SDS011;61721;42.206;25.320;2024-02-28T03:12:31;11.70;;;3.50;;
73487;SDS011;61721;42.206;25.320;2024-02-28T03:15:00;10.40;;;2.97;;
73487;SDS011;61721;42.206;25.320;2024-02-28T03:17:28;9.38;;;3.72;;
73487;SDS011;61721;42.206;25.320;2024-02-28T03:19:56;12.73;;;3.75;;
73487;SDS011;61721;42.206;25.320;2024-02-28T03:22:23;10.90;;;3.53;;
73487;SDS011;61721;42.206;25.320;2024-02-28T03:24:50;12.98;;;4.57;;
73487;SDS011;61721;42.206;25.320;2024-02-28T03:27:18;19.95;;;5.20;;
73487;SDS011;61721;42.206;25.320;2024-02-28T03:29:45;12.02;;;3.95;;
73487;SDS011;61721;42.206;25.320;2024-02-28T03:32:14;8.90;;;3.40;;
73487;SDS011;61721;42.206;25.320;2024-02-28T03:34:42;9.20;;;3.22;;
73487;SDS011;61721;42.206;25.320;2024-02-28T03:37:09;10.70;;;3.13;;
73487;SDS011;61721;42.206;25.320;2024-02-28T03:39:36;13.32;;;3.88;;
73487;SDS011;61721;42.206;25.320;2024-02-28T03:42:04;14.68;;;3.60;;
73487;SDS011;61721;42.206;25.320;2024-02-28T03:44:32;10.60;;;3.53;;
73487;SDS011;61721;42.206;25.320;2024-02-28T03:46:59;10.80;;;3.38;;
73487;SDS011;61721;42.206;25.320;2024-02-28T03:49:28;9.35;;;3.65;;
73487;SDS011;61721;42.206;25.320;2024-02-28T03:51:55;11.20;;;4.00;;
73487;SDS011;61721;42.206;25.320;2024-02-28T03:54:23;10.18;;;4.90;;
73487;SDS011;61721;42.206;25.320;2024-02-28T03:56:50;19.83;;;6.80;;
73487;SDS011;61721;42.206;25.320;2024-02-28T03:59:18;12.38;;;4.20;;
73487;SDS011;61721;42.206;25.320;2024-02-28T04:01:45;10.35;;;3.47;;
73487;SDS011;61721;42.206;25.320;2024-02-28T04:04:12;9.60;;;3.35;;
73487;SDS011;61721;42.206;25.320;2024-02-28T04:06:41;13.70;;;4.28;;
73487;SDS011;61721;42.206;25.320;2024-02-28T04:09:09;12.45;;;4.00;;
73487;SDS011;61721;42.206;25.320;2024-02-28T04:11:36;12.35;;;3.95;;
73487;SDS011;61721;42.206;25.320;2024-02-28T04:14:04;10.88;;;4.45;;
73487;SDS011;61721;42.206;25.320;2024-02-28T04:16:32;16.52;;;5.13;;
73487;SDS011;61721;42.206;25.320;2024-02-28T04:18:59;10.40;;;4.57;;
73487;SDS011;61721;42.206;25.320;2024-02-28T04:21:26;18.17;;;6.15;;
73487;SDS011;61721;42.206;25.320;2024-02-28T04:23:55;14.25;;;4.53;;
73487;SDS011;61721;42.206;25.320;2024-02-28T04:26:22;7.75;;;3.85;;
73487;SDS011;61721;42.206;25.320;2024-02-28T04:28:50;14.18;;;4.65;;
73487;SDS011;61721;42.206;25.320;2024-02-28T04:31:17;10.23;;;4.00;;
73487;SDS011;61721;42.206;25.320;2024-02-28T04:33:44;13.02;;;3.85;;
73487;SDS011;61721;42.206;25.320;2024-02-28T04:36:12;13.23;;;4.22;;
73487;SDS011;61721;42.206;25.320;2024-02-28T04:38:45;8.88;;;3.65;;
73487;SDS011;61721;42.206;25.320;2024-02-28T04:41:14;16.13;;;6.22;;
73487;SDS011;61721;42.206;25.320;2024-02-28T04:43:41;18.70;;;8.70;;
73487;SDS011;61721;42.206;25.320;2024-02-28T04:46:09;15.43;;;6.95;;
73487;SDS011;61721;42.206;25.320;2024-02-28T04:48:37;9.90;;;5.32;;
73487;SDS011;61721;42.206;25.320;2024-02-28T04:51:04;12.85;;;4.45;;
73487;SDS011;61721;42.206;25.320;2024-02-28T04:53:31;11.60;;;3.63;;
73487;SDS011;61721;42.206;25.320;2024-02-28T04:55:59;14.38;;;5.05;;
73487;SDS011;61721;42.206;25.320;2024-02-28T04:58:28;14.10;;;4.85;;
73487;SDS011;61721;42.206;25.320;2024-02-28T05:00:56;13.95;;;6.07;;
73487;SDS011;61721;42.206;25.320;2024-02-28T05:03:23;21.42;;;9.13;;
73487;SDS011;61721;42.206;25.320;2024-02-28T05:05:51;19.15;;;6.55;;
73487;SDS011;61721;42.206;25.320;2024-02-28T05:08:19;14.63;;;5.45;;
73487;SDS011;61721;42.206;25.320;2024-02-28T05:10:47;15.90;;;5.35;;
73487;SDS011;61721;42.206;25.320;2024-02-28T05:13:16;12.32;;;5.43;;
73487;SDS011;61721;42.206;25.320;2024-02-28T05:15:45;10.27;;;4.85;;
73487;SDS011;61721;42.206;25.320;2024-02-28T05:18:12;13.05;;;5.95;;
73487;SDS011;61721;42.206;25.320;2024-02-28T05:20:40;15.77;;;5.57;;
73487;SDS011;61721;42.206;25.320;2024-02-28T05:23:07;17.10;;;5.65;;
73487;SDS011;61721;42.206;25.320;2024-02-28T05:25:35;17.95;;;5.95;;
73487;SDS011;61721;42.206;25.320;2024-02-28T05:28:02;17.35;;;5.38;;
73487;SDS011;61721;42.206;25.320;2024-02-28T05:30:34;18.13;;;7.30;;
73487;SDS011;61721;42.206;25.320;2024-02-28T05:33:03;15.10;;;7.90;;
73487;SDS011;61721;42.206;25.320;2024-02-28T05:35:32;14.00;;;6.47;;
73487;SDS011;61721;42.206;25.320;2024-02-28T05:37:59;18.30;;;5.10;;
73487;SDS011;61721;42.206;25.320;2024-02-28T05:40:26;11.82;;;3.75;;
73487;SDS011;61721;42.206;25.320;2024-02-28T05:42:54;12.55;;;4.10;;
73487;SDS011;61721;42.206;25.320;2024-02-28T05:45:21;12.95;;;4.95;;
73487;SDS011;61721;42.206;25.320;2024-02-28T05:47:49;17.30;;;5.57;;
73487;SDS011;61721;42.206;25.320;2024-02-28T05:50:17;13.63;;;4.88;;
73487;SDS011;61721;42.206;25.320;2024-02-28T05:55:14;19.73;;;7.45;;
73487;SDS011;61721;42.206;25.320;2024-02-28T05:57:41;32.38;;;12.38;;
73487;SDS011;61721;42.206;25.320;2024-02-28T06:00:09;25.40;;;11.32;;
73487;SDS011;61721;42.206;25.320;2024-02-28T06:02:37;21.40;;;9.45;;
73487;SDS011;61721;42.206;25.320;2024-02-28T06:05:05;17.85;;;7.00;;
73487;SDS011;61721;42.206;25.320;2024-02-28T06:07:35;31.05;;;7.07;;
73487;SDS011;61721;42.206;25.320;2024-02-28T06:10:03;13.57;;;4.72;;
73487;SDS011;61721;42.206;25.320;2024-02-28T06:12:30;15.10;;;4.32;;
73487;SDS011;61721;42.206;25.320;2024-02-28T06:14:58;20.73;;;4.72;;
73487;SDS011;61721;42.206;25.320;2024-02-28T06:17:25;19.88;;;4.72;;
73487;SDS011;61721;42.206;25.320;2024-02-28T06:19:53;13.48;;;4.22;;
73487;SDS011;61721;42.206;25.320;2024-02-28T06:22:21;7.38;;;4.18;;
73487;SDS011;61721;42.206;25.320;2024-02-28T06:24:50;18.63;;;6.10;;
73487;SDS011;61721;42.206;25.320;2024-02-28T06:27:17;13.40;;;5.50;;
73487;SDS011;61721;42.206;25.320;2024-02-28T06:29:44;18.35;;;4.90;;
73487;SDS011;61721;42.206;25.320;2024-02-28T06:32:12;8.88;;;4.15;;
73487;SDS011;61721;42.206;25.320;2024-02-28T06:34:39;11.15;;;4.60;;
73487;SDS011;61721;42.206;25.320;2024-02-28T06:37:07;13.27;;;4.40;;
73487;SDS011;61721;42.206;25.320;2024-02-28T06:39:35;15.90;;;7.63;;
73487;SDS011;61721;42.206;25.320;2024-02-28T06:42:05;15.93;;;6.03;;
73487;SDS011;61721;42.206;25.320;2024-02-28T06:44:33;16.30;;;5.55;;
73487;SDS011;61721;42.206;25.320;2024-02-28T06:47:01;13.82;;;6.18;;
73487;SDS011;61721;42.206;25.320;2024-02-28T06:49:29;12.70;;;5.95;;
73487;SDS011;61721;42.206;25.320;2024-02-28T06:51:56;14.25;;;4.88;;
73487;SDS011;61721;42.206;25.320;2024-02-28T06:54:27;12.32;;;5.07;;
73487;SDS011;61721;42.206;25.320;2024-02-28T06:56:54;12.50;;;4.63;;
73487;SDS011;61721;42.206;25.320;2024-02-28T06:59:23;11.15;;;4.55;;
73487;SDS011;61721;42.206;25.320;2024-02-28T07:01:51;11.90;;;4.47;;
73487;SDS011;61721;42.206;25.320;2024-02-28T07:04:18;12.13;;;5.25;;
73487;SDS011;61721;42.206;25.320;2024-02-28T07:06:46;12.93;;;5.28;;
73487;SDS011;61721;42.206;25.320;2024-02-28T07:09:13;12.70;;;5.22;;
73487;SDS011;61721;42.206;25.320;2024-02-28T07:11:41;11.95;;;4.93;;
73487;SDS011;61721;42.206;25.320;2024-02-28T07:14:08;11.98;;;4.60;;
73487;SDS011;61721;42.206;25.320;2024-02-28T07:16:39;11.60;;;5.13;;
73487;SDS011;61721;42.206;25.320;2024-02-28T07:19:07;10.88;;;4.95;;
73487;SDS011;61721;42.206;25.320;2024-02-28T07:21:35;14.77;;;6.53;;
73487;SDS011;61721;42.206;25.320;2024-02-28T07:24:03;12.65;;;4.97;;
73487;SDS011;61721;42.206;25.320;2024-02-28T07:26:31;9.93;;;4.63;;
73487;SDS011;61721;42.206;25.320;2024-02-28T07:28:58;10.75;;;4.68;;
73487;SDS011;61721;42.206;25.320;2024-02-28T07:31:26;15.77;;;4.78;;
73487;SDS011;61721;42.206;25.320;2024-02-28T07:33:55;15.00;;;4.60;;
73487;SDS011;61721;42.206;25.320;2024-02-28T07:36:23;12.32;;;4.40;;
73487;SDS011;61721;42.206;25.320;2024-02-28T07:38:50;16.08;;;4.43;;
73487;SDS011;61721;42.206;25.320;2024-02-28T07:41:18;12.68;;;4.65;;
73487;SDS011;61721;42.206;25.320;2024-02-28T07:43:46;9.07;;;4.38;;
73487;SDS011;61721;42.206;25.320;2024-02-28T07:46:13;13.30;;;5.05;;
73487;SDS011;61721;42.206;25.320;2024-02-28T07:48:40;14.75;;;5.50;;
73487;SDS011;61721;42.206;25.320;2024-02-28T07:51:09;17.15;;;5.85;;
73487;SDS011;61721;42.206;25.320;2024-02-28T07:53:37;12.77;;;5.03;;
73487;SDS011;61721;42.206;25.320;2024-02-28T07:56:04;16.25;;;5.78;;
73487;SDS011;61721;42.206;25.320;2024-02-28T07:58:32;12.07;;;4.97;;
73487;SDS011;61721;42.206;25.320;2024-02-28T08:00:59;18.52;;;6.15;;
73487;SDS011;61721;42.206;25.320;2024-02-28T08:03:26;11.98;;;5.32;;
73487;SDS011;61721;42.206;25.320;2024-02-28T08:05:54;16.08;;;6.03;;
73487;SDS011;61721;42.206;25.320;2024-02-28T08:08:23;12.50;;;5.40;;
73487;SDS011;61721;42.206;25.320;2024-02-28T08:10:50;14.20;;;5.80;;
73487;SDS011;61721;42.206;25.320;2024-02-28T08:13:18;15.15;;;5.65;;
73487;SDS011;61721;42.206;25.320;2024-02-28T08:15:46;12.52;;;5.15;;
73487;SDS011;61721;42.206;25.320;2024-02-28T08:18:13;13.27;;;5.45;;
73487;SDS011;61721;42.206;25.320;2024-02-28T08:20:41;22.90;;;5.70;;
73487;SDS011;61721;42.206;25.320;2024-02-28T08:23:08;14.10;;;5.68;;
73487;SDS011;61721;42.206;25.320;2024-02-28T08:25:37;13.93;;;6.10;;
73487;SDS011;61721;42.206;25.320;2024-02-28T08:28:04;23.58;;;6.07;;
73487;SDS011;61721;42.206;25.320;2024-02-28T08:30:32;13.20;;;5.65;;
73487;SDS011;61721;42.206;25.320;2024-02-28T08:33:00;15.15;;;6.28;;
73487;SDS011;61721;42.206;25.320;2024-02-28T08:35:29;15.10;;;6.63;;
73487;SDS011;61721;42.206;25.320;2024-02-28T08:37:57;17.13;;;6.90;;
73487;SDS011;61721;42.206;25.320;2024-02-28T08:40:24;20.17;;;6.88;;
73487;SDS011;61721;42.206;25.320;2024-02-28T08:42:53;21.52;;;6.82;;
73487;SDS011;61721;42.206;25.320;2024-02-28T08:45:21;16.88;;;6.47;;
73487;SDS011;61721;42.206;25.320;2024-02-28T08:47:49;18.77;;;6.28;;
73487;SDS011;61721;42.206;25.320;2024-02-28T08:50:17;17.13;;;6.43;;
73487;SDS011;61721;42.206;25.320;2024-02-28T08:52:44;19.05;;;7.15;;
73487;SDS011;61721;42.206;25.320;2024-02-28T08:55:12;14.43;;;6.25;;
73487;SDS011;61721;42.206;25.320;2024-02-28T08:57:42;17.05;;;7.05;;
73487;SDS011;61721;42.206;25.320;2024-02-28T09:00:12;18.98;;;7.05;;
73487;SDS011;61721;42.206;25.320;2024-02-28T09:02:40;19.80;;;6.68;;
73487;SDS011;61721;42.206;25.320;2024-02-28T09:05:08;16.90;;;6.93;;
73487;SDS011;61721;42.206;25.320;2024-02-28T09:07:35;18.15;;;7.65;;
73487;SDS011;61721;42.206;25.320;2024-02-28T09:10:03;17.88;;;6.43;;
73487;SDS011;61721;42.206;25.320;2024-02-28T09:12:32;14.20;;;6.50;;
73487;SDS011;61721;42.206;25.320;2024-02-28T09:15:01;16.05;;;6.85;;
73487;SDS011;61721;42.206;25.320;2024-02-28T09:17:29;15.82;;;6.75;;
73487;SDS011;61721;42.206;25.320;2024-02-28T09:19:57;13.20;;;6.30;;
73487;SDS011;61721;42.206;25.320;2024-02-28T09:22:26;14.70;;;6.47;;
73487;SDS011;61721;42.206;25.320;2024-02-28T09:24:53;14.02;;;6.28;;
73487;SDS011;61721;42.206;25.320;2024-02-28T09:27:20;15.75;;;7.45;;
73487;SDS011;61721;42.206;25.320;2024-02-28T09:29:49;18.65;;;7.53;;
73487;SDS011;61721;42.206;25.320;2024-02-28T09:32:17;14.70;;;7.35;;
73487;SDS011;61721;42.206;25.320;2024-02-28T09:34:46;18.55;;;7.75;;
73487;SDS011;61721;42.206;25.320;2024-02-28T09:37:13;17.60;;;7.75;;
73487;SDS011;61721;42.206;25.320;2024-02-28T09:39:42;21.65;;;8.60;;
73487;SDS011;61721;42.206;25.320;2024-02-28T09:42:10;24.75;;;8.65;;
73487;SDS011;61721;42.206;25.320;2024-02-28T09:44:38;16.58;;;7.97;;
73487;SDS011;61721;42.206;25.320;2024-02-28T09:47:06;18.67;;;8.63;;
73487;SDS011;61721;42.206;25.320;2024-02-28T09:49:35;18.60;;;8.45;;
73487;SDS011;61721;42.206;25.320;2024-02-28T09:52:05;19.55;;;8.55;;
73487;SDS011;61721;42.206;25.320;2024-02-28T09:54:39;21.08;;;8.85;;
73487;SDS011;61721;42.206;25.320;2024-02-28T09:57:09;16.95;;;8.75;;
73487;SDS011;61721;42.206;25.320;2024-02-28T09:59:40;14.65;;;7.90;;
73487;SDS011;61721;42.206;25.320;2024-02-28T10:02:09;18.58;;;8.63;;
73487;SDS011;61721;42.206;25.320;2024-02-28T10:04:38;18.92;;;9.20;;
73487;SDS011;61721;42.206;25.320;2024-02-28T10:07:14;17.33;;;8.57;;
73487;SDS011;61721;42.206;25.320;2024-02-28T10:09:44;20.92;;;8.57;;
73487;SDS011;61721;42.206;25.320;2024-02-28T10:12:12;17.40;;;8.18;;
73487;SDS011;61721;42.206;25.320;2024-02-28T10:14:49;18.95;;;9.88;;
73487;SDS011;61721;42.206;25.320;2024-02-28T10:17:17;19.02;;;9.93;;
73487;SDS011;61721;42.206;25.320;2024-02-28T10:19:45;16.20;;;9.15;;
73487;SDS011;61721;42.206;25.320;2024-02-28T10:22:15;22.02;;;12.32;;
73487;SDS011;61721;42.206;25.320;2024-02-28T10:24:42;28.75;;;16.55;;
73487;SDS011;61721;42.206;25.320;2024-02-28T10:27:10;29.13;;;16.10;;
73487;SDS011;61721;42.206;25.320;2024-02-28T10:29:37;33.22;;;18.10;;
73487;SDS011;61721;42.206;25.320;2024-02-28T10:32:05;26.65;;;13.68;;
73487;SDS011;61721;42.206;25.320;2024-02-28T10:34:33;22.25;;;12.52;;
73487;SDS011;61721;42.206;25.320;2024-02-28T10:37:01;20.65;;;11.40;;
73487;SDS011;61721;42.206;25.320;2024-02-28T10:39:33;21.05;;;11.20;;
73487;SDS011;61721;42.206;25.320;2024-02-28T10:42:02;17.17;;;9.50;;
73487;SDS011;61721;42.206;25.320;2024-02-28T10:44:30;19.80;;;10.07;;
73487;SDS011;61721;42.206;25.320;2024-02-28T10:46:59;19.45;;;8.68;;
73487;SDS011;61721;42.206;25.320;2024-02-28T10:49:27;21.95;;;9.32;;
73487;SDS011;61721;42.206;25.320;2024-02-28T10:51:56;17.60;;;9.45;;
73487;SDS011;61721;42.206;25.320;2024-02-28T10:54:25;17.77;;;9.90;;
73487;SDS011;61721;42.206;25.320;2024-02-28T10:56:57;17.90;;;8.68;;
73487;SDS011;61721;42.206;25.320;2024-02-28T10:59:34;14.38;;;7.70;;
73487;SDS011;61721;42.206;25.320;2024-02-28T11:02:05;16.20;;;8.52;;
73487;SDS011;61721;42.206;25.320;2024-02-28T11:04:33;14.57;;;7.75;;
73487;SDS011;61721;42.206;25.320;2024-02-28T11:07:01;14.77;;;7.88;;
73487;SDS011;61721;42.206;25.320;2024-02-28T11:09:29;14.55;;;7.55;;
73487;SDS011;61721;42.206;25.320;2024-02-28T11:11:59;16.85;;;7.90;;
73487;SDS011;61721;42.206;25.320;2024-02-28T11:14:26;14.68;;;6.82;;
73487;SDS011;61721;42.206;25.320;2024-02-28T11:17:01;15.18;;;7.43;;
73487;SDS011;61721;42.206;25.320;2024-02-28T11:19:29;15.63;;;6.63;;
73487;SDS011;61721;42.206;25.320;2024-02-28T11:21:58;13.50;;;6.40;;
73487;SDS011;61721;42.206;25.320;2024-02-28T11:24:28;14.93;;;7.18;;
73487;SDS011;61721;42.206;25.320;2024-02-28T11:26:58;16.65;;;7.70;;
73487;SDS011;61721;42.206;25.320;2024-02-28T11:29:28;18.35;;;7.30;;
73487;SDS011;61721;42.206;25.320;2024-02-28T11:31:55;15.07;;;6.72;;
73487;SDS011;61721;42.206;25.320;2024-02-28T11:34:23;13.93;;;7.63;;
73487;SDS011;61721;42.206;25.320;2024-02-28T11:36:50;13.38;;;6.18;;
73487;SDS011;61721;42.206;25.320;2024-02-28T11:39:20;13.55;;;6.40;;
73487;SDS011;61721;42.206;25.320;2024-02-28T11:41:50;10.90;;;5.88;;
73487;SDS011;61721;42.206;25.320;2024-02-28T11:44:19;11.93;;;6.22;;
73487;SDS011;61721;42.206;25.320;2024-02-28T11:46:47;13.13;;;5.80;;
73487;SDS011;61721;42.206;25.320;2024-02-28T11:49:15;10.70;;;5.57;;
73487;SDS011;61721;42.206;25.320;2024-02-28T11:51:43;13.27;;;6.25;;
73487;SDS011;61721;42.206;25.320;2024-02-28T11:54:11;14.43;;;5.20;;
73487;SDS011;61721;42.206;25.320;2024-02-28T11:56:39;10.40;;;5.65;;
73487;SDS011;61721;42.206;25.320;2024-02-28T11:59:08;11.80;;;5.40;;
73487;SDS011;61721;42.206;25.320;2024-02-28T12:01:40;13.27;;;5.63;;
73487;SDS011;61721;42.206;25.320;2024-02-28T12:04:09;13.15;;;5.70;;
73487;SDS011;61721;42.206;25.320;2024-02-28T12:06:38;13.63;;;5.32;;
73487;SDS011;61721;42.206;25.320;2024-02-28T12:09:06;12.90;;;5.00;;
73487;SDS011;61721;42.206;25.320;2024-02-28T12:11:36;10.68;;;4.95;;
73487;SDS011;61721;42.206;25.320;2024-02-28T12:14:04;12.55;;;5.18;;
73487;SDS011;61721;42.206;25.320;2024-02-28T12:16:34;12.63;;;4.63;;
73487;SDS011;61721;42.206;25.320;2024-02-28T12:19:04;12.40;;;5.20;;
73487;SDS011;61721;42.206;25.320;2024-02-28T12:21:35;11.05;;;5.28;;
73487;SDS011;61721;42.206;25.320;2024-02-28T12:24:03;11.15;;;5.32;;
73487;SDS011;61721;42.206;25.320;2024-02-28T12:26:31;14.10;;;5.75;;
73487;SDS011;61721;42.206;25.320;2024-02-28T12:28:58;14.52;;;5.78;;
73487;SDS011;61721;42.206;25.320;2024-02-28T12:31:26;15.95;;;7.22;;
73487;SDS011;61721;42.206;25.320;2024-02-28T12:33:54;14.98;;;6.10;;
73487;SDS011;61721;42.206;25.320;2024-02-28T12:36:22;13.23;;;5.60;;
73487;SDS011;61721;42.206;25.320;2024-02-28T12:38:50;18.30;;;6.57;;
73487;SDS011;61721;42.206;25.320;2024-02-28T12:41:17;13.35;;;5.70;;
73487;SDS011;61721;42.206;25.320;2024-02-28T12:43:45;13.50;;;5.93;;
73487;SDS011;61721;42.206;25.320;2024-02-28T12:46:12;15.88;;;6.22;;
73487;SDS011;61721;42.206;25.320;2024-02-28T12:48:40;13.32;;;5.70;;
73487;SDS011;61721;42.206;25.320;2024-02-28T12:51:08;15.48;;;6.30;;
73487;SDS011;61721;42.206;25.320;2024-02-28T12:53:49;15.23;;;6.50;;
73487;SDS011;61721;42.206;25.320;2024-02-28T12:56:16;18.58;;;6.97;;
73487;SDS011;61721;42.206;25.320;2024-02-28T12:58:43;18.42;;;6.15;;
73487;SDS011;61721;42.206;25.320;2024-02-28T13:01:11;14.43;;;6.32;;
73487;SDS011;61721;42.206;25.320;2024-02-28T13:03:47;13.35;;;6.95;;
73487;SDS011;61721;42.206;25.320;2024-02-28T13:06:15;12.85;;;5.80;;
73487;SDS011;61721;42.206;25.320;2024-02-28T13:08:44;13.73;;;5.95;;
73487;SDS011;61721;42.206;25.320;2024-02-28T13:11:18;13.68;;;5.68;;
73487;SDS011;61721;42.206;25.320;2024-02-28T13:13:53;15.27;;;5.68;;
73487;SDS011;61721;42.206;25.320;2024-02-28T13:16:20;13.02;;;6.25;;
73487;SDS011;61721;42.206;25.320;2024-02-28T13:18:48;19.48;;;7.07;;
73487;SDS011;61721;42.206;25.320;2024-02-28T13:21:15;14.00;;;6.95;;
73487;SDS011;61721;42.206;25.320;2024-02-28T13:23:43;16.30;;;7.57;;
73487;SDS011;61721;42.206;25.320;2024-02-28T13:26:10;13.45;;;6.07;;
73487;SDS011;61721;42.206;25.320;2024-02-28T13:28:44;12.40;;;5.63;;
73487;SDS011;61721;42.206;25.320;2024-02-28T13:31:11;10.45;;;5.80;;
73487;SDS011;61721;42.206;25.320;2024-02-28T13:33:39;10.88;;;5.32;;
73487;SDS011;61721;42.206;25.320;2024-02-28T13:36:08;11.90;;;5.60;;
73487;SDS011;61721;42.206;25.320;2024-02-28T13:38:35;11.75;;;5.47;;
73487;SDS011;61721;42.206;25.320;2024-02-28T13:41:02;11.27;;;5.05;;
73487;SDS011;61721;42.206;25.320;2024-02-28T13:43:34;10.40;;;4.70;;
73487;SDS011;61721;42.206;25.320;2024-02-28T13:46:02;11.10;;;4.55;;
73487;SDS011;61721;42.206;25.320;2024-02-28T13:48:32;10.65;;;4.18;;
73487;SDS011;61721;42.206;25.320;2024-02-28T13:51:00;10.13;;;4.47;;
73487;SDS011;61721;42.206;25.320;2024-02-28T13:53:28;9.38;;;4.38;;
73487;SDS011;61721;42.206;25.320;2024-02-28T13:55:56;8.23;;;4.55;;
73487;SDS011;61721;42.206;25.320;2024-02-28T13:58:23;9.30;;;4.57;;
73487;SDS011;61721;42.206;25.320;2024-02-28T14:00:50;10.88;;;4.57;;
73487;SDS011;61721;42.206;25.320;2024-02-28T14:03:21;7.60;;;4.32;;
73487;SDS011;61721;42.206;25.320;2024-02-28T14:05:50;9.38;;;4.50;;
73487;SDS011;61721;42.206;25.320;2024-02-28T14:08:17;8.57;;;4.28;;
73487;SDS011;61721;42.206;25.320;2024-02-28T14:10:45;9.38;;;4.38;;
73487;SDS011;61721;42.206;25.320;2024-02-28T14:13:12;8.95;;;4.20;;
73487;SDS011;61721;42.206;25.320;2024-02-28T14:15:48;11.55;;;4.70;;
73487;SDS011;61721;42.206;25.320;2024-02-28T14:18:16;11.15;;;4.38;;
73487;SDS011;61721;42.206;25.320;2024-02-28T14:20:45;10.45;;;4.55;;
73487;SDS011;61721;42.206;25.320;2024-02-28T14:23:13;12.00;;;4.65;;
73487;SDS011;61721;42.206;25.320;2024-02-28T14:25:41;11.82;;;4.32;;
73487;SDS011;61721;42.206;25.320;2024-02-28T14:28:08;12.20;;;4.93;;
73487;SDS011;61721;42.206;25.320;2024-02-28T14:30:35;9.68;;;4.80;;